sensor_id;sensor_type;location;lat;lon;timestamp;pressure;altitude;pressure_sealevel;temperature;humidity
27712;BME280;2377;51.734;8.950;2023-08-20T00:01:27;98436.75;;;22.59;96.86
27712;BME280;2377;51.734;8.950;2023-08-20T00:03:57;98443.81;;;22.59;96.53
27712;BME280;2377;51.734;8.950;2023-08-20T00:06:25;98444.06;;;22.57;96.56
27712;BME280;2377;51.734;8.950;2023-08-20T00:08:52;98441.50;;;22.52;96.41
27712;BME280;2377;51.734;8.950;2023-08-20T00:11:19;98442.28;;;22.53;96.42
27712;BME280;2377;51.734;8.950;2023-08-20T00:13:47;98438.41;;;22.50;96.47
27712;BME280;2377;51.734;8.950;2023-08-20T00:16:15;98445.75;;;22.48;96.08
27712;BME280;2377;51.734;8.950;2023-08-20T00:18:43;98447.59;;;22.43;95.82
27712;BME280;2377;51.734;8.950;2023-08-20T00:21:14;98449.97;;;22.39;95.99
27712;BME280;2377;51.734;8.950;2023-08-20T00:23:42;98448.72;;;22.36;96.14
27712;BME280;2377;51.734;8.950;2023-08-20T00:26:10;98455.75;;;22.31;96.23
27712;BME280;2377;51.734;8.950;2023-08-20T00:28:37;98451.88;;;22.28;96.17
27712;BME280;2377;51.734;8.950;2023-08-20T00:31:05;98452.16;;;22.27;95.63
27712;BME280;2377;51.734;8.950;2023-08-20T00:33:32;98456.88;;;22.25;95.59
27712;BME280;2377;51.734;8.950;2023-08-20T00:36:00;98460.50;;;22.24;96.08
27712;BME280;2377;51.734;8.950;2023-08-20T00:38:28;98454.81;;;22.16;96.22
27712;BME280;2377;51.734;8.950;2023-08-20T00:40:56;98455.13;;;22.10;95.57
27712;BME280;2377;51.734;8.950;2023-08-20T00:43:23;98456.44;;;22.07;95.38
27712;BME280;2377;51.734;8.950;2023-08-20T00:45:50;98447.34;;;22.05;95.51
27712;BME280;2377;51.734;8.950;2023-08-20T00:48:18;98454.63;;;22.03;95.75
27712;BME280;2377;51.734;8.950;2023-08-20T00:50:45;98459.84;;;22.03;95.79
27712;BME280;2377;51.734;8.950;2023-08-20T00:53:14;98455.41;;;22.03;95.88
27712;BME280;2377;51.734;8.950;2023-08-20T00:55:43;98458.00;;;22.03;95.92
27712;BME280;2377;51.734;8.950;2023-08-20T00:58:11;98459.06;;;22.02;96.02
27712;BME280;2377;51.734;8.950;2023-08-20T01:00:38;98457.78;;;22.00;96.47
27712;BME280;2377;51.734;8.950;2023-08-20T01:03:05;98462.50;;;21.98;96.64
27712;BME280;2377;51.734;8.950;2023-08-20T01:05:50;98461.72;;;21.97;96.79
27712;BME280;2377;51.734;8.950;2023-08-20T01:08:29;98449.72;;;21.96;96.84
27712;BME280;2377;51.734;8.950;2023-08-20T01:11:08;98452.34;;;21.96;96.67
27712;BME280;2377;51.734;8.950;2023-08-20T01:13:37;98460.16;;;21.96;96.27
27712;BME280;2377;51.734;8.950;2023-08-20T01:16:04;98457.03;;;21.94;96.59
27712;BME280;2377;51.734;8.950;2023-08-20T01:18:31;98450.28;;;21.93;96.35
27712;BME280;2377;51.734;8.950;2023-08-20T01:21:04;98459.94;;;21.92;96.32
27712;BME280;2377;51.734;8.950;2023-08-20T01:24:01;98466.72;;;21.88;95.89
27712;BME280;2377;51.734;8.950;2023-08-20T01:27:00;98463.88;;;21.85;96.61
27712;BME280;2377;51.734;8.950;2023-08-20T01:29:29;98465.97;;;21.83;96.10
27712;BME280;2377;51.734;8.950;2023-08-20T01:31:57;98472.22;;;21.82;96.15
27712;BME280;2377;51.734;8.950;2023-08-20T01:34:26;98468.84;;;21.81;96.14
27712;BME280;2377;51.734;8.950;2023-08-20T01:36:53;98468.06;;;21.81;96.24
27712;BME280;2377;51.734;8.950;2023-08-20T01:39:20;98466.50;;;21.80;95.90
27712;BME280;2377;51.734;8.950;2023-08-20T01:41:48;98461.28;;;21.80;96.34
27712;BME280;2377;51.734;8.950;2023-08-20T01:44:15;98462.34;;;21.79;96.75
27712;BME280;2377;51.734;8.950;2023-08-20T01:46:43;98457.91;;;21.79;96.88
27712;BME280;2377;51.734;8.950;2023-08-20T01:49:11;98458.97;;;21.78;97.33
27712;BME280;2377;51.734;8.950;2023-08-20T01:51:38;98461.28;;;21.80;97.70
27712;BME280;2377;51.734;8.950;2023-08-20T01:54:06;98451.69;;;21.80;97.84
27712;BME280;2377;51.734;8.950;2023-08-20T01:56:33;98446.19;;;21.82;97.84
27712;BME280;2377;51.734;8.950;2023-08-20T01:59:00;98443.06;;;21.85;98.19
27712;BME280;2377;51.734;8.950;2023-08-20T02:01:27;98449.81;;;21.86;98.43
27712;BME280;2377;51.734;8.950;2023-08-20T02:03:56;98447.22;;;21.86;99.09
27712;BME280;2377;51.734;8.950;2023-08-20T02:06:23;98446.16;;;21.87;99.71
27712;BME280;2377;51.734;8.950;2023-08-20T02:08:51;98443.28;;;21.88;99.98
27712;BME280;2377;51.734;8.950;2023-08-20T02:11:18;98439.63;;;21.89;99.96
27712;BME280;2377;51.734;8.950;2023-08-20T02:13:45;98442.72;;;21.91;100.00
27712;BME280;2377;51.734;8.950;2023-08-20T02:16:12;98435.97;;;21.90;100.00
27712;BME280;2377;51.734;8.950;2023-08-20T02:18:39;98435.22;;;21.90;100.00
27712;BME280;2377;51.734;8.950;2023-08-20T02:21:08;98426.91;;;21.88;100.00
27712;BME280;2377;51.734;8.950;2023-08-20T02:23:35;98425.88;;;21.84;100.00
27712;BME280;2377;51.734;8.950;2023-08-20T02:26:02;98432.94;;;21.78;100.00
27712;BME280;2377;51.734;8.950;2023-08-20T02:28:29;98444.69;;;21.76;100.00
27712;BME280;2377;51.734;8.950;2023-08-20T02:30:56;98449.59;;;21.77;100.00
27712;BME280;2377;51.734;8.950;2023-08-20T02:33:25;98448.56;;;21.78;100.00
27712;BME280;2377;51.734;8.950;2023-08-20T02:35:53;98444.91;;;21.79;100.00
27712;BME280;2377;51.734;8.950;2023-08-20T02:38:21;98449.38;;;21.73;100.00
27712;BME280;2377;51.734;8.950;2023-08-20T02:40:48;98444.97;;;21.69;100.00
27712;BME280;2377;51.734;8.950;2023-08-20T02:43:15;98440.28;;;21.66;100.00
27712;BME280;2377;51.734;8.950;2023-08-20T02:45:43;98448.38;;;21.64;100.00
27712;BME280;2377;51.734;8.950;2023-08-20T02:48:10;98450.97;;;21.64;100.00
27712;BME280;2377;51.734;8.950;2023-08-20T02:50:38;98451.53;;;21.61;100.00
27712;BME280;2377;51.734;8.950;2023-08-20T02:53:06;98452.03;;;21.58;100.00
27712;BME280;2377;51.734;8.950;2023-08-20T02:55:35;98459.34;;;21.56;100.00
27712;BME280;2377;51.734;8.950;2023-08-20T02:58:03;98453.13;;;21.52;100.00
27712;BME280;2377;51.734;8.950;2023-08-20T03:00:32;98464.56;;;21.51;100.00
27712;BME280;2377;51.734;8.950;2023-08-20T03:02:59;98464.31;;;21.52;100.00
27712;BME280;2377;51.734;8.950;2023-08-20T03:05:28;98457.28;;;21.53;100.00
27712;BME280;2377;51.734;8.950;2023-08-20T03:07:55;98454.41;;;21.55;100.00
27712;BME280;2377;51.734;8.950;2023-08-20T03:10:22;98466.13;;;21.52;100.00
27712;BME280;2377;51.734;8.950;2023-08-20T03:12:51;98465.34;;;21.51;99.87
27712;BME280;2377;51.734;8.950;2023-08-20T03:15:18;98462.72;;;21.51;100.00
27712;BME280;2377;51.734;8.950;2023-08-20T03:17:45;98462.47;;;21.53;100.00
27712;BME280;2377;51.734;8.950;2023-08-20T03:20:12;98471.81;;;21.54;100.00
27712;BME280;2377;51.734;8.950;2023-08-20T03:22:40;98468.72;;;21.57;100.00
27712;BME280;2377;51.734;8.950;2023-08-20T03:25:08;98465.81;;;21.59;100.00
27712;BME280;2377;51.734;8.950;2023-08-20T03:27:35;98467.13;;;21.61;100.00
27712;BME280;2377;51.734;8.950;2023-08-20T03:30:05;98474.94;;;21.61;100.00
27712;BME280;2377;51.734;8.950;2023-08-20T03:32:33;98479.59;;;21.64;100.00
27712;BME280;2377;51.734;8.950;2023-08-20T03:35:00;98473.63;;;21.64;100.00
27712;BME280;2377;51.734;8.950;2023-08-20T03:37:27;98475.94;;;21.65;100.00
27712;BME280;2377;51.734;8.950;2023-08-20T03:39:55;98470.72;;;21.65;100.00
27712;BME280;2377;51.734;8.950;2023-08-20T03:42:22;98467.66;;;21.58;100.00
27712;BME280;2377;51.734;8.950;2023-08-20T03:44:49;98466.13;;;21.52;100.00
27712;BME280;2377;51.734;8.950;2023-08-20T03:47:18;98462.22;;;21.49;100.00
27712;BME280;2377;51.734;8.950;2023-08-20T03:49:47;98465.09;;;21.48;100.00
27712;BME280;2377;51.734;8.950;2023-08-20T03:52:14;98476.06;;;21.45;100.00
27712;BME280;2377;51.734;8.950;2023-08-20T03:54:42;98480.19;;;21.46;100.00
27712;BME280;2377;51.734;8.950;2023-08-20T03:57:09;98473.94;;;21.47;100.00
27712;BME280;2377;51.734;8.950;2023-08-20T03:59:36;98485.38;;;21.51;100.00
27712;BME280;2377;51.734;8.950;2023-08-20T04:02:03;98491.88;;;21.53;100.00
27712;BME280;2377;51.734;8.950;2023-08-20T04:04:32;98492.13;;;21.57;100.00
27712;BME280;2377;51.734;8.950;2023-08-20T04:06:59;98486.63;;;21.59;100.00
27712;BME280;2377;51.734;8.950;2023-08-20T04:09:26;98495.75;;;21.61;100.00
27712;BME280;2377;51.734;8.950;2023-08-20T04:11:53;98502.25;;;21.59;100.00
27712;BME280;2377;51.734;8.950;2023-08-20T04:14:21;98500.69;;;21.58;100.00
27712;BME280;2377;51.734;8.950;2023-08-20T04:16:48;98500.97;;;21.56;100.00
27712;BME280;2377;51.734;8.950;2023-08-20T04:19:15;98497.59;;;21.56;100.00
27712;BME280;2377;51.734;8.950;2023-08-20T04:21:43;98491.59;;;21.55;100.00
27712;BME280;2377;51.734;8.950;2023-08-20T04:24:10;98495.53;;;21.52;100.00
27712;BME280;2377;51.734;8.950;2023-08-20T04:26:38;98497.34;;;21.47;100.00
27712;BME280;2377;51.734;8.950;2023-08-20T04:29:05;98505.19;;;21.42;100.00
27712;BME280;2377;51.734;8.950;2023-08-20T04:31:32;98510.91;;;21.39;100.00
27712;BME280;2377;51.734;8.950;2023-08-20T04:33:59;98511.69;;;21.34;100.00
27712;BME280;2377;51.734;8.950;2023-08-20T04:36:26;98512.47;;;21.35;100.00
27712;BME280;2377;51.734;8.950;2023-08-20T04:38:55;98520.78;;;21.37;100.00
27712;BME280;2377;51.734;8.950;2023-08-20T04:41:25;98517.66;;;21.40;100.00
27712;BME280;2377;51.734;8.950;2023-08-20T04:43:52;98519.75;;;21.43;100.00
27712;BME280;2377;51.734;8.950;2023-08-20T04:46:19;98517.16;;;21.43;100.00
27712;BME280;2377;51.734;8.950;2023-08-20T04:48:46;98503.09;;;21.39;100.00
27712;BME280;2377;51.734;8.950;2023-08-20T04:51:13;98509.59;;;21.36;100.00
27712;BME280;2377;51.734;8.950;2023-08-20T04:53:40;98519.22;;;21.36;100.00
27712;BME280;2377;51.734;8.950;2023-08-20T04:56:09;98512.47;;;21.35;100.00
27712;BME280;2377;51.734;8.950;2023-08-20T04:58:36;98515.06;;;21.35;100.00
27712;BME280;2377;51.734;8.950;2023-08-20T05:01:03;98518.19;;;21.31;100.00
27712;BME280;2377;51.734;8.950;2023-08-20T05:03:31;98529.38;;;21.32;100.00
27712;BME280;2377;51.734;8.950;2023-08-20T05:05:58;98533.25;;;21.35;100.00
27712;BME280;2377;51.734;8.950;2023-08-20T05:08:25;98531.72;;;21.33;100.00
27712;BME280;2377;51.734;8.950;2023-08-20T05:10:53;98535.34;;;21.32;100.00
27712;BME280;2377;51.734;8.950;2023-08-20T05:13:21;98545.50;;;21.29;100.00
27712;BME280;2377;51.734;8.950;2023-08-20T05:15:49;98544.22;;;21.31;100.00
27712;BME280;2377;51.734;8.950;2023-08-20T05:18:16;98545.25;;;21.36;100.00
27712;BME280;2377;51.734;8.950;2023-08-20T05:20:44;98549.38;;;21.37;100.00
27712;BME280;2377;51.734;8.950;2023-08-20T05:23:11;98547.56;;;21.37;100.00
27712;BME280;2377;51.734;8.950;2023-08-20T05:25:39;98538.47;;;21.35;100.00
27712;BME280;2377;51.734;8.950;2023-08-20T05:28:06;98541.59;;;21.37;100.00
27712;BME280;2377;51.734;8.950;2023-08-20T05:30:35;98541.59;;;21.37;100.00
27712;BME280;2377;51.734;8.950;2023-08-20T05:33:03;98539.00;;;21.42;100.00
27712;BME280;2377;51.734;8.950;2023-08-20T05:35:30;98531.72;;;21.44;100.00
27712;BME280;2377;51.734;8.950;2023-08-20T05:37:57;98534.81;;;21.46;100.00
27712;BME280;2377;51.734;8.950;2023-08-20T05:40:24;98545.78;;;21.43;100.00
27712;BME280;2377;51.734;8.950;2023-08-20T05:42:51;98536.69;;;21.40;100.00
27712;BME280;2377;51.734;8.950;2023-08-20T05:45:18;98539.00;;;21.42;100.00
27712;BME280;2377;51.734;8.950;2023-08-20T05:47:47;98541.56;;;21.47;100.00
27712;BME280;2377;51.734;8.950;2023-08-20T05:50:14;98549.91;;;21.49;100.00
27712;BME280;2377;51.734;8.950;2023-08-20T05:52:41;98538.97;;;21.52;100.00
27712;BME280;2377;51.734;8.950;2023-08-20T05:55:09;98543.09;;;21.58;100.00
27712;BME280;2377;51.734;8.950;2023-08-20T05:57:37;98543.63;;;21.60;100.00
27712;BME280;2377;51.734;8.950;2023-08-20T06:00:05;98543.38;;;21.62;100.00
27712;BME280;2377;51.734;8.950;2023-08-20T06:02:33;98544.41;;;21.61;100.00
27712;BME280;2377;51.734;8.950;2023-08-20T06:05:01;98551.69;;;21.59;100.00
27712;BME280;2377;51.734;8.950;2023-08-20T06:07:30;98555.84;;;21.65;100.00
27712;BME280;2377;51.734;8.950;2023-08-20T06:09:57;98558.69;;;21.68;100.00
27712;BME280;2377;51.734;8.950;2023-08-20T06:12:25;98560.25;;;21.69;100.00
27712;BME280;2377;51.734;8.950;2023-08-20T06:14:52;98554.28;;;21.69;100.00
27712;BME280;2377;51.734;8.950;2023-08-20T06:17:19;98550.88;;;21.73;100.00
27712;BME280;2377;51.734;8.950;2023-08-20T06:19:46;98539.13;;;21.81;100.00
27712;BME280;2377;51.734;8.950;2023-08-20T06:22:15;98527.63;;;21.92;100.00
27712;BME280;2377;51.734;8.950;2023-08-20T06:24:42;98527.31;;;21.99;100.00
27712;BME280;2377;51.734;8.950;2023-08-20T06:27:10;98534.06;;;22.00;100.00
27712;BME280;2377;51.734;8.950;2023-08-20T06:29:37;98551.50;;;22.05;100.00
27712;BME280;2377;51.734;8.950;2023-08-20T06:32:05;98545.75;;;22.08;100.00
27712;BME280;2377;51.734;8.950;2023-08-20T06:34:34;98538.97;;;22.12;100.00
27712;BME280;2377;51.734;8.950;2023-08-20T06:37:02;98556.97;;;22.08;100.00
27712;BME280;2377;51.734;8.950;2023-08-20T06:39:30;98575.19;;;22.03;100.00
27712;BME280;2377;51.734;8.950;2023-08-20T06:41:58;98577.53;;;22.05;100.00
27712;BME280;2377;51.734;8.950;2023-08-20T06:44:25;98588.97;;;22.09;100.00
27712;BME280;2377;51.734;8.950;2023-08-20T06:46:52;98585.28;;;22.15;100.00
27712;BME280;2377;51.734;8.950;2023-08-20T06:49:19;98589.72;;;22.14;100.00
27712;BME280;2377;51.734;8.950;2023-08-20T06:51:46;98580.09;;;22.15;100.00
27712;BME280;2377;51.734;8.950;2023-08-20T06:54:15;98572.78;;;22.22;100.00
27712;BME280;2377;51.734;8.950;2023-08-20T06:56:43;98565.19;;;22.31;100.00
27712;BME280;2377;51.734;8.950;2023-08-20T06:59:11;98574.53;;;22.37;100.00
27712;BME280;2377;51.734;8.950;2023-08-20T07:01:38;98582.84;;;22.39;100.00
27712;BME280;2377;51.734;8.950;2023-08-20T07:04:05;98586.47;;;22.43;100.00
27712;BME280;2377;51.734;8.950;2023-08-20T07:06:33;98574.94;;;22.54;100.00
27712;BME280;2377;51.734;8.950;2023-08-20T07:09:00;98581.91;;;22.64;100.00
27712;BME280;2377;51.734;8.950;2023-08-20T07:11:29;98571.63;;;22.78;100.00
27712;BME280;2377;51.734;8.950;2023-08-20T07:13:58;98569.47;;;22.85;100.00
27712;BME280;2377;51.734;8.950;2023-08-20T07:16:25;98571.81;;;22.87;100.00
27712;BME280;2377;51.734;8.950;2023-08-20T07:18:52;98577.25;;;22.90;100.00
27712;BME280;2377;51.734;8.950;2023-08-20T07:21:19;98581.94;;;22.93;100.00
27712;BME280;2377;51.734;8.950;2023-08-20T07:23:47;98579.84;;;22.95;99.79
27712;BME280;2377;51.734;8.950;2023-08-20T07:26:14;98568.66;;;22.90;99.19
27712;BME280;2377;51.734;8.950;2023-08-20T07:28:41;98564.72;;;22.92;100.00
27712;BME280;2377;51.734;8.950;2023-08-20T07:31:25;98570.94;;;23.02;100.00
27712;BME280;2377;51.734;8.950;2023-08-20T07:33:53;98573.47;;;23.12;100.00
27712;BME280;2377;51.734;8.950;2023-08-20T07:36:23;98571.31;;;23.19;100.00
27712;BME280;2377;51.734;8.950;2023-08-20T07:38:52;98574.06;;;23.28;100.00
27712;BME280;2377;51.734;8.950;2023-08-20T07:41:20;98575.59;;;23.34;100.00
27712;BME280;2377;51.734;8.950;2023-08-20T07:43:48;98580.38;;;23.51;100.00
27712;BME280;2377;51.734;8.950;2023-08-20T07:46:16;98572.97;;;23.58;97.89
27712;BME280;2377;51.734;8.950;2023-08-20T07:48:44;98576.16;;;23.55;97.62
27712;BME280;2377;51.734;8.950;2023-08-20T07:51:12;98575.03;;;23.61;98.07
27712;BME280;2377;51.734;8.950;2023-08-20T07:53:39;98572.22;;;23.81;97.55
27712;BME280;2377;51.734;8.950;2023-08-20T07:56:06;98576.91;;;24.03;98.18
27712;BME280;2377;51.734;8.950;2023-08-20T07:58:34;98577.47;;;24.19;96.50
27712;BME280;2377;51.734;8.950;2023-08-20T08:01:01;98579.81;;;24.40;95.76
27712;BME280;2377;51.734;8.950;2023-08-20T08:03:29;98585.63;;;24.56;92.44
27712;BME280;2377;51.734;8.950;2023-08-20T08:05:57;98593.25;;;24.52;91.78
27712;BME280;2377;51.734;8.950;2023-08-20T08:08:25;98587.47;;;24.55;91.29
27712;BME280;2377;51.734;8.950;2023-08-20T08:10:52;98587.47;;;24.55;92.12
27712;BME280;2377;51.734;8.950;2023-08-20T08:13:21;98581.66;;;24.58;92.09
27712;BME280;2377;51.734;8.950;2023-08-20T08:15:49;98592.38;;;24.57;92.30
27712;BME280;2377;51.734;8.950;2023-08-20T08:18:17;98596.34;;;24.54;91.42
27712;BME280;2377;51.734;8.950;2023-08-20T08:20:44;98587.56;;;24.64;91.29
27712;BME280;2377;51.734;8.950;2023-08-20T08:23:13;98585.66;;;24.70;90.85
27712;BME280;2377;51.734;8.950;2023-08-20T08:25:41;98593.50;;;24.70;91.74
27712;BME280;2377;51.734;8.950;2023-08-20T08:28:08;98587.53;;;24.83;88.33
27712;BME280;2377;51.734;8.950;2023-08-20T08:30:35;98593.97;;;24.91;90.14
27712;BME280;2377;51.734;8.950;2023-08-20T08:33:03;98587.28;;;24.98;89.48
27712;BME280;2377;51.734;8.950;2023-08-20T08:35:30;98589.91;;;24.98;87.03
27712;BME280;2377;51.734;8.950;2023-08-20T08:37:57;98589.69;;;24.95;86.87
27712;BME280;2377;51.734;8.950;2023-08-20T08:40:30;98588.16;;;24.94;86.28
27712;BME280;2377;51.734;8.950;2023-08-20T08:42:57;98591.63;;;24.89;86.02
27712;BME280;2377;51.734;8.950;2023-08-20T08:45:27;98594.81;;;24.86;86.19
27712;BME280;2377;51.734;8.950;2023-08-20T08:47:55;98593.84;;;24.82;86.10
27712;BME280;2377;51.734;8.950;2023-08-20T08:50:22;98596.25;;;24.78;85.91
27712;BME280;2377;51.734;8.950;2023-08-20T08:52:51;98597.09;;;24.74;87.14
27712;BME280;2377;51.734;8.950;2023-08-20T08:55:20;98599.16;;;24.77;86.99
27712;BME280;2377;51.734;8.950;2023-08-20T08:57:48;98594.69;;;24.77;87.97
27712;BME280;2377;51.734;8.950;2023-08-20T09:00:16;98589.75;;;24.76;87.36
27712;BME280;2377;51.734;8.950;2023-08-20T09:02:43;98590.22;;;24.78;87.93
27712;BME280;2377;51.734;8.950;2023-08-20T09:05:12;98595.59;;;24.86;88.48
27712;BME280;2377;51.734;8.950;2023-08-20T09:07:43;98596.28;;;24.92;88.41
27712;BME280;2377;51.734;8.950;2023-08-20T09:10:11;98587.97;;;25.04;86.31
27712;BME280;2377;51.734;8.950;2023-08-20T09:12:38;98597.91;;;25.21;87.59
27712;BME280;2377;51.734;8.950;2023-08-20T09:15:10;98591.94;;;25.34;85.38
27712;BME280;2377;51.734;8.950;2023-08-20T09:17:40;98602.69;;;25.46;84.23
27712;BME280;2377;51.734;8.950;2023-08-20T09:20:09;98603.47;;;25.61;84.45
27712;BME280;2377;51.734;8.950;2023-08-20T09:22:36;98603.84;;;25.68;83.06
27712;BME280;2377;51.734;8.950;2023-08-20T09:25:04;98606.69;;;25.71;83.85
27712;BME280;2377;51.734;8.950;2023-08-20T09:27:39;98606.84;;;25.75;83.86
27712;BME280;2377;51.734;8.950;2023-08-20T09:30:10;98611.53;;;25.78;83.40
27712;BME280;2377;51.734;8.950;2023-08-20T09:32:44;98600.28;;;25.78;82.99
27712;BME280;2377;51.734;8.950;2023-08-20T09:35:18;98607.44;;;25.72;82.81
27712;BME280;2377;51.734;8.950;2023-08-20T09:37:45;98600.78;;;25.66;82.62
27712;BME280;2377;51.734;8.950;2023-08-20T09:40:13;98600.56;;;25.62;82.18
27712;BME280;2377;51.734;8.950;2023-08-20T09:42:41;98596.88;;;25.63;82.67
27712;BME280;2377;51.734;8.950;2023-08-20T09:45:11;98593.69;;;25.66;82.29
27712;BME280;2377;51.734;8.950;2023-08-20T09:47:40;98590.19;;;25.57;80.81
27712;BME280;2377;51.734;8.950;2023-08-20T09:50:11;98589.22;;;25.67;82.79
27712;BME280;2377;51.734;8.950;2023-08-20T09:52:45;98597.84;;;25.95;83.33
27712;BME280;2377;51.734;8.950;2023-08-20T09:55:20;98604.50;;;26.15;81.00
27712;BME280;2377;51.734;8.950;2023-08-20T09:57:48;98595.19;;;26.23;80.81
27712;BME280;2377;51.734;8.950;2023-08-20T10:00:17;98591.84;;;26.31;79.56
27712;BME280;2377;51.734;8.950;2023-08-20T10:02:44;98591.31;;;26.20;79.80
27712;BME280;2377;51.734;8.950;2023-08-20T10:05:12;98598.19;;;26.16;81.09
27712;BME280;2377;51.734;8.950;2023-08-20T10:07:43;98593.69;;;26.30;82.09
27712;BME280;2377;51.734;8.950;2023-08-20T10:10:10;98593.97;;;26.29;79.59
27712;BME280;2377;51.734;8.950;2023-08-20T10:12:40;98600.09;;;26.24;80.98
27712;BME280;2377;51.734;8.950;2023-08-20T10:15:10;98590.72;;;26.23;80.24
27712;BME280;2377;51.734;8.950;2023-08-20T10:17:42;98589.03;;;26.27;79.23
27712;BME280;2377;51.734;8.950;2023-08-20T10:20:12;98597.50;;;26.24;78.79
27712;BME280;2377;51.734;8.950;2023-08-20T10:22:42;98597.50;;;26.24;79.32
27712;BME280;2377;51.734;8.950;2023-08-20T10:25:11;98593.03;;;26.25;78.86
27712;BME280;2377;51.734;8.950;2023-08-20T10:27:41;98599.91;;;26.34;78.89
27712;BME280;2377;51.734;8.950;2023-08-20T10:30:10;98601.69;;;26.48;79.28
27712;BME280;2377;51.734;8.950;2023-08-20T10:32:48;98587.78;;;26.61;79.60
27712;BME280;2377;51.734;8.950;2023-08-20T10:35:17;98600.41;;;26.82;78.22
27712;BME280;2377;51.734;8.950;2023-08-20T10:38:06;98595.38;;;26.94;74.60
27712;BME280;2377;51.734;8.950;2023-08-20T10:40:53;98593.09;;;27.01;74.71
27712;BME280;2377;51.734;8.950;2023-08-20T10:43:32;98583.28;;;27.15;75.96
27712;BME280;2377;51.734;8.950;2023-08-20T10:46:07;98599.28;;;27.28;76.45
27712;BME280;2377;51.734;8.950;2023-08-20T10:48:39;98589.69;;;27.23;73.01
27712;BME280;2377;51.734;8.950;2023-08-20T10:51:11;98584.84;;;27.16;72.84
27712;BME280;2377;51.734;8.950;2023-08-20T10:53:41;98595.34;;;27.16;72.30
27712;BME280;2377;51.734;8.950;2023-08-20T10:56:11;98591.06;;;27.20;74.13
27712;BME280;2377;51.734;8.950;2023-08-20T10:58:41;98589.44;;;27.42;73.61
27712;BME280;2377;51.734;8.950;2023-08-20T11:01:19;98591.50;;;27.62;72.74
27712;BME280;2377;51.734;8.950;2023-08-20T11:03:50;98593.41;;;27.71;71.46
27712;BME280;2377;51.734;8.950;2023-08-20T11:06:18;98593.00;;;27.86;71.92
27712;BME280;2377;51.734;8.950;2023-08-20T11:08:45;98590.41;;;28.03;69.82
27712;BME280;2377;51.734;8.950;2023-08-20T11:11:13;98586.69;;;28.04;70.64
27712;BME280;2377;51.734;8.950;2023-08-20T11:13:40;98593.19;;;28.16;72.20
27712;BME280;2377;51.734;8.950;2023-08-20T11:16:08;98590.72;;;28.28;69.06
27712;BME280;2377;51.734;8.950;2023-08-20T11:18:36;98591.47;;;28.37;68.01
27712;BME280;2377;51.734;8.950;2023-08-20T11:21:05;98589.16;;;28.44;67.33
27712;BME280;2377;51.734;8.950;2023-08-20T11:23:32;98589.19;;;28.53;65.96
27712;BME280;2377;51.734;8.950;2023-08-20T11:26:00;98589.66;;;28.55;65.32
27712;BME280;2377;51.734;8.950;2023-08-20T11:28:28;98590.72;;;28.63;62.94
27712;BME280;2377;51.734;8.950;2023-08-20T11:30:56;98596.44;;;28.65;65.49
27712;BME280;2377;51.734;8.950;2023-08-20T11:33:24;98592.53;;;28.71;63.43
27712;BME280;2377;51.734;8.950;2023-08-20T11:35:52;98599.19;;;28.77;62.96
27712;BME280;2377;51.734;8.950;2023-08-20T11:38:23;98602.78;;;28.73;62.76
27712;BME280;2377;51.734;8.950;2023-08-20T11:40:51;98597.97;;;28.66;63.75
27712;BME280;2377;51.734;8.950;2023-08-20T11:43:18;98604.94;;;28.62;64.08
27712;BME280;2377;51.734;8.950;2023-08-20T11:45:47;98602.94;;;28.59;64.44
27712;BME280;2377;51.734;8.950;2023-08-20T11:48:16;98598.75;;;28.66;64.03
27712;BME280;2377;51.734;8.950;2023-08-20T11:50:43;98602.47;;;28.74;62.88
27712;BME280;2377;51.734;8.950;2023-08-20T11:53:11;98600.31;;;28.59;62.16
27712;BME280;2377;51.734;8.950;2023-08-20T11:55:41;98602.16;;;28.50;61.93
27712;BME280;2377;51.734;8.950;2023-08-20T11:58:11;98602.63;;;28.34;63.04
27712;BME280;2377;51.734;8.950;2023-08-20T12:00:40;98592.41;;;28.15;63.16
27712;BME280;2377;51.734;8.950;2023-08-20T12:03:09;98592.09;;;28.08;63.94
27712;BME280;2377;51.734;8.950;2023-08-20T12:05:36;98598.91;;;28.09;64.49
27712;BME280;2377;51.734;8.950;2023-08-20T12:08:04;98595.50;;;28.26;64.73
27712;BME280;2377;51.734;8.950;2023-08-20T12:10:33;98589.63;;;28.38;65.19
27712;BME280;2377;51.734;8.950;2023-08-20T12:13:02;98583.13;;;28.53;65.44
27712;BME280;2377;51.734;8.950;2023-08-20T12:15:30;98580.94;;;28.63;63.19
27712;BME280;2377;51.734;8.950;2023-08-20T12:18:02;98574.47;;;28.61;63.85
27712;BME280;2377;51.734;8.950;2023-08-20T12:20:33;98580.34;;;28.49;61.63
27712;BME280;2377;51.734;8.950;2023-08-20T12:23:02;98578.94;;;28.43;62.35
27712;BME280;2377;51.734;8.950;2023-08-20T12:25:32;98576.00;;;28.36;62.39
27712;BME280;2377;51.734;8.950;2023-08-20T12:28:02;98573.53;;;28.31;60.28
27712;BME280;2377;51.734;8.950;2023-08-20T12:30:30;98570.75;;;28.18;60.16
27712;BME280;2377;51.734;8.950;2023-08-20T12:32:57;98577.25;;;28.03;60.57
27712;BME280;2377;51.734;8.950;2023-08-20T12:35:24;98570.41;;;27.94;60.77
27712;BME280;2377;51.734;8.950;2023-08-20T12:37:52;98580.31;;;27.88;61.99
27712;BME280;2377;51.734;8.950;2023-08-20T12:40:19;98570.84;;;27.78;59.91
27712;BME280;2377;51.734;8.950;2023-08-20T12:42:47;98567.13;;;27.71;60.46
27712;BME280;2377;51.734;8.950;2023-08-20T12:45:18;98570.81;;;27.70;60.28
27712;BME280;2377;51.734;8.950;2023-08-20T12:47:46;98566.50;;;27.74;59.66
27712;BME280;2377;51.734;8.950;2023-08-20T12:50:13;98569.75;;;27.79;59.70
27712;BME280;2377;51.734;8.950;2023-08-20T12:52:40;98578.44;;;27.89;59.81
27712;BME280;2377;51.734;8.950;2023-08-20T12:55:09;98569.19;;;28.00;58.09
27712;BME280;2377;51.734;8.950;2023-08-20T12:57:36;98566.56;;;28.00;57.81
27712;BME280;2377;51.734;8.950;2023-08-20T13:00:05;98564.09;;;28.03;57.22
27712;BME280;2377;51.734;8.950;2023-08-20T13:02:38;98568.56;;;28.03;57.87
27712;BME280;2377;51.734;8.950;2023-08-20T13:05:07;98567.50;;;28.13;61.59
27712;BME280;2377;51.734;8.950;2023-08-20T13:07:35;98564.41;;;28.28;61.59
27712;BME280;2377;51.734;8.950;2023-08-20T13:10:04;98565.81;;;28.34;58.36
27712;BME280;2377;51.734;8.950;2023-08-20T13:12:33;98564.25;;;28.33;58.12
27712;BME280;2377;51.734;8.950;2023-08-20T13:15:01;98562.38;;;28.34;59.65